Tuesday, June 28, 2016
20:30 UTC
  |  Log In   |  Register Free
Airport Search:

Fort Smith Regional Airport
(KFSM)

FAA data valid effective May 26 2016 - Jul 21 2016 (unless otherwise noted).

 
 
 
 
 
 
 
 
 
 
 
 
 
 
Current Aviation Weather for KFSM

Weather Summary


The most recent METAR observation for FSM was updated at: 12:53 UTC
METAR for KFSM is not available. Closest METAR is for KJSV
KFSM  (most recent observation was updatred at 28:19 UTC)
281953Z 09011KT 10SM CLR 33/14 A3007 RMK AO2 SLP177 T03330139

KJSV  (22.2 nm SE)   (most recent observation was updated at 28:20 UTC)
282015Z AUTO 05007KT 10SM CLR 35/15 A3009 RMK AO2

KRKR  (22.6 nm NE)   (most recent observation was updated at 28:20 UTC)
282015Z AUTO 01010G18KT 320V040 10SM CLR 35/14 A3005 RMK AO2 T03480143

TAF for KFSM is not available.
KFSM
281733Z 2818/2918 06007KT P6SM SCT250 FM290300 VRB03KT P6SM SCT250 FM291500 07005KT P6SM SCT250

GlobalAir.com is loading additional information.
 Current Weather at FSM
91.0 F° (32.8 C°)

East winds at 13.8 mph
Pressure:
30.10 in
Humidity:
34%
Wind:
East at 13.8 mph
Dew Point:
59.0 F° (15.0 C°)
Visibility:
10.00 mi
FSM NOAA Radar




Find All Airport Services Find A Hotel Find A Rental Car Find A Golf Course Find A Restaurant $100 Hamburger



Airport Weather Forecast for KFSM

Translated METAR for KFSM (1953 UTC)
METAR:
KFSM 281953Z 09011KT 10SM CLR 33/14 A3007 RMK AO2 SLP177 T03330139
Conditions at:
KFSM (Fort Smith Rgnl, AR) observed 1953 UTC 28 June 2016
Temperature:
33°C (91.4°F)
Dewpoint:
14°C (57.2°F) [RH = 31.8]
Pressure:
30.07 inches Hg (1018.3 mb)
pressure at sea level is 177 in Hg
Winds:
from the E (090 degrees) at 12.7 mph (11 knots: 5.7 m/s)
Visibility:
10 mile(s)
Ceiling:
at least 12,000 feet AGL
Clouds:
Clear below 12,000 feet AGL
Remarks:
site is automated and HAS a precipitation sensor

Translated TAF for KFSM (Fort Smith Rgnl, AR) (1733 UTC)
TAF text:
KFSM 281733Z 2818/2918 06007KT P6SM SCT250
Forecast period:
Tuesday Jun 28 2016 18:00 UTC - Wednesday Jun 29 2016 18:00 UTC
Forecast type:
FROM: standard forecast or significant change
Winds:
from the ENE (060 degrees) at 8.1 mph (7 knots: 3.6 m/s)
Visibility:
6 or more mile(s) (9.7+ km)
Ceiling:
at least 12,000 feet AGL
Clouds:
Scattered Clouds at 25,000 feet AGL
Weather:
no significant weather observed at this time
TAF text:
FM290300 VRB03KT P6SM SCT250
Forecast period:
Wednesday Jun 29 2016 03:00 UTC - Wednesday Jun 29 2016 15:00 UTC
Forecast type:
FROM: standard forecast or significant change
Winds:
variable wind direction at 3.5 mph (3 knots: 1.5 m/s)
Visibility:
6 or more mile(s) (9.7+ km)
Ceiling:
at least 12,000 feet AGL
Clouds:
Scattered Clouds at 25,000 feet AGL
Weather:
no significant weather observed at this time
TAF text:
FM291500 07005KT P6SM SCT250
Forecast period:
Wednesday Jun 29 2016 15:00 UTC - Wednesday Jun 29 2016 18:00 UTC
Forecast type:
FROM: standard forecast or significant change
Winds:
from the ENE (070 degrees) at 5.8 mph (5 knots: 2.6 m/s)
Visibility:
6 or more mile(s) (9.7+ km)
Ceiling:
at least 12,000 feet AGL
Clouds:
Scattered Clouds at 25,000 feet AGL
Weather:
no significant weather observed at this time
FBO's on the Field
FBO Company Facility Photos Services Transportation Aviation Fuel Prices: Prices include tax
Catering Weather Repair Courtesy Rental Type 100LL JetA JetA+ MOGAS 8087
 
TAC Air - FSM

This FBO has not yet been rated
FS:Phillips 66
Last Updated: Jun-09
Login to update fuel prices
SS:
Contact TAC Air - FSMMore FBO Information
 
Add another FBO Facility Photos Catering Weather Repair Courtesy Rental Type 100LL JetA JetA+ MOGAS 8087
Services Transportation Aviation Fuel Prices: Prices include tax


model-print
model-print
model-print
model-print